createdAt,value
2018-09-30T00:00:18.081Z,6.30
2018-09-30T00:02:45.340Z,8.10
2018-09-30T00:05:12.580Z,6.80
2018-09-30T00:07:39.828Z,6.53
2018-09-30T00:10:07.064Z,5.40
2018-09-30T00:12:34.307Z,7.73
2018-09-30T00:15:01.554Z,7.70
2018-09-30T00:17:28.792Z,7.70
2018-09-30T00:19:56.036Z,7.97
2018-09-30T00:22:23.251Z,6.37
2018-09-30T00:24:56.078Z,7.77
2018-09-30T00:27:23.323Z,6.33
2018-09-30T00:29:50.592Z,9.57
2018-09-30T00:32:17.785Z,8.73
2018-09-30T00:34:45.073Z,7.87
2018-09-30T00:37:12.290Z,8.53
2018-09-30T00:39:39.556Z,6.13
2018-09-30T00:42:06.798Z,6.37
2018-09-30T00:44:34.044Z,8.00
2018-09-30T00:47:01.303Z,6.40
2018-09-30T00:49:28.570Z,7.27
2018-09-30T00:51:55.846Z,7.90
2018-09-30T00:54:23.141Z,9.83
2018-09-30T00:56:50.319Z,8.60
2018-09-30T00:59:17.600Z,9.70
2018-09-30T01:01:44.823Z,7.10
2018-09-30T01:04:12.026Z,6.77
2018-09-30T01:06:39.480Z,8.77
2018-09-30T01:09:11.268Z,6.93
2018-09-30T01:11:38.662Z,9.23
2018-09-30T01:14:05.981Z,8.23
2018-09-30T01:16:33.418Z,7.90
2018-09-30T01:19:00.664Z,7.63
2018-09-30T01:21:27.968Z,6.20
2018-09-30T01:23:55.193Z,8.70
2018-09-30T01:26:22.509Z,6.93
2018-09-30T01:28:49.748Z,6.73
2018-09-30T01:31:16.992Z,7.00
2018-09-30T01:33:44.200Z,5.67
2018-09-30T01:36:11.438Z,6.40
2018-09-30T01:38:38.692Z,7.90
2018-09-30T01:41:05.944Z,9.03
2018-09-30T01:43:33.168Z,10.47
2018-09-30T01:46:00.384Z,7.83
2018-09-30T01:48:27.615Z,7.77
2018-09-30T01:50:54.896Z,5.93
2018-09-30T01:53:22.120Z,8.27
2018-09-30T01:55:49.367Z,10.43
2018-09-30T01:58:16.605Z,8.07
2018-09-30T02:00:43.934Z,7.67
2018-09-30T02:03:11.146Z,10.17
2018-09-30T02:05:38.412Z,6.60
2018-09-30T02:08:05.650Z,11.23
2018-09-30T02:10:32.889Z,9.30
2018-09-30T02:13:00.130Z,5.20
2018-09-30T02:15:27.425Z,7.17
2018-09-30T02:17:54.681Z,4.87
2018-09-30T02:20:21.919Z,7.03
2018-09-30T02:22:49.156Z,6.27
2018-09-30T02:25:16.474Z,5.23
2018-09-30T02:27:43.722Z,8.57
2018-09-30T02:30:11.057Z,8.60
2018-09-30T02:32:38.286Z,6.97
2018-09-30T02:35:05.524Z,5.07
2018-09-30T02:37:32.991Z,10.50
2018-09-30T02:40:00.247Z,7.70
2018-09-30T02:42:27.729Z,7.67
2018-09-30T02:44:54.957Z,5.57
2018-09-30T02:47:22.221Z,8.27
2018-09-30T02:49:49.515Z,5.70
2018-09-30T02:52:16.955Z,5.57
2018-09-30T02:54:44.227Z,8.17
2018-09-30T02:57:11.473Z,7.23
2018-09-30T02:59:38.701Z,8.23
2018-09-30T03:02:05.957Z,5.47
2018-09-30T03:04:33.177Z,6.20
2018-09-30T03:07:06.195Z,10.50
2018-09-30T03:09:33.453Z,7.67
2018-09-30T03:12:00.725Z,7.77
2018-09-30T03:14:28.057Z,7.83
2018-09-30T03:16:55.315Z,5.50
2018-09-30T03:19:22.568Z,5.57
2018-09-30T03:21:49.819Z,8.40
2018-09-30T03:24:17.064Z,7.73
2018-09-30T03:26:44.293Z,6.67
2018-09-30T03:29:11.493Z,6.37
2018-09-30T03:31:38.871Z,6.43
2018-09-30T03:34:06.368Z,7.13
2018-09-30T03:36:33.596Z,7.00
2018-09-30T03:39:00.881Z,9.13
2018-09-30T03:41:28.134Z,4.87
2018-09-30T03:43:55.373Z,7.60
2018-09-30T03:46:22.572Z,6.50
2018-09-30T03:48:49.840Z,10.70
2018-09-30T03:51:17.168Z,7.00
2018-09-30T03:53:44.399Z,11.17
2018-09-30T03:56:11.607Z,5.77
2018-09-30T03:58:38.846Z,4.57
2018-09-30T04:01:06.227Z,5.33
2018-09-30T04:03:33.648Z,8.23
2018-09-30T04:06:02.873Z,9.03
2018-09-30T04:08:30.110Z,6.13
2018-09-30T04:10:57.337Z,11.60
2018-09-30T04:13:24.573Z,7.53
2018-09-30T04:15:51.809Z,9.17
2018-09-30T04:18:19.096Z,6.83
2018-09-30T04:20:46.324Z,7.00
2018-09-30T04:23:13.779Z,5.13
2018-09-30T04:25:41.028Z,8.07
2018-09-30T04:28:08.394Z,9.10
2018-09-30T04:30:35.727Z,6.43
2018-09-30T04:33:02.954Z,5.73
2018-09-30T04:35:30.296Z,6.23
2018-09-30T04:37:57.489Z,7.53
2018-09-30T04:40:24.794Z,6.30
2018-09-30T04:42:52.045Z,5.60
2018-09-30T04:45:19.272Z,5.37
2018-09-30T04:47:46.501Z,5.00
2018-09-30T04:50:13.752Z,6.13
2018-09-30T04:52:41.014Z,6.07
2018-09-30T04:55:08.327Z,5.80
2018-09-30T04:57:35.586Z,6.43
2018-09-30T05:00:02.868Z,6.57
2018-09-30T05:02:30.105Z,10.00
2018-09-30T05:04:57.413Z,9.13
2018-09-30T05:07:24.651Z,7.23
2018-09-30T05:09:51.913Z,10.00
2018-09-30T05:12:19.993Z,7.33
2018-09-30T05:14:47.245Z,5.30
2018-09-30T05:17:14.522Z,8.20
2018-09-30T05:19:41.766Z,4.67
2018-09-30T05:22:09.047Z,6.20
2018-09-30T05:24:36.268Z,6.13
2018-09-30T05:27:03.499Z,5.93
2018-09-30T05:29:30.732Z,8.53
2018-09-30T05:31:58.112Z,6.00
2018-09-30T05:34:25.353Z,7.40
2018-09-30T05:36:52.619Z,4.83
2018-09-30T05:39:19.860Z,7.03
2018-09-30T05:41:47.056Z,7.70
2018-09-30T05:44:14.300Z,5.80
2018-09-30T05:46:41.578Z,6.80
2018-09-30T05:49:09.055Z,8.17
2018-09-30T05:51:36.366Z,6.70
2018-09-30T05:54:04.335Z,8.00
2018-09-30T05:56:31.585Z,6.13
2018-09-30T05:58:58.829Z,7.90
2018-09-30T06:01:26.320Z,8.43
2018-09-30T06:03:56.036Z,7.83
2018-09-30T06:06:23.262Z,8.97
2018-09-30T06:08:50.573Z,6.87
2018-09-30T06:11:17.894Z,9.30
2018-09-30T06:13:45.191Z,7.10
2018-09-30T06:16:12.360Z,5.97
2018-09-30T06:18:39.659Z,7.37
2018-09-30T06:21:06.892Z,8.63
2018-09-30T06:23:34.129Z,7.67
2018-09-30T06:26:01.284Z,7.80
2018-09-30T06:28:28.607Z,8.90
2018-09-30T06:30:55.831Z,6.87
2018-09-30T06:33:23.041Z,7.97
2018-09-30T06:35:50.301Z,6.67
2018-09-30T06:38:17.560Z,8.77
2018-09-30T06:40:44.820Z,6.30
2018-09-30T06:43:12.048Z,7.97
2018-09-30T06:45:39.260Z,8.93
2018-09-30T06:48:06.520Z,11.23
2018-09-30T06:50:33.773Z,7.33
2018-09-30T06:53:01.340Z,8.00
2018-09-30T06:55:28.692Z,6.80
2018-09-30T06:57:56.095Z,7.53
2018-09-30T07:00:23.406Z,8.80
2018-09-30T07:02:50.664Z,8.23
2018-09-30T07:05:17.940Z,7.23
2018-09-30T07:07:45.170Z,10.50
2018-09-30T07:10:12.625Z,6.23
2018-09-30T07:12:39.853Z,8.33
2018-09-30T07:15:07.064Z,12.37
2018-09-30T07:17:34.256Z,10.33
2018-09-30T07:20:01.503Z,7.70
2018-09-30T07:22:28.740Z,9.97
2018-09-30T07:24:55.985Z,9.83
2018-09-30T07:27:23.365Z,8.20
2018-09-30T07:29:50.640Z,6.80
2018-09-30T07:32:17.860Z,8.37
2018-09-30T07:34:45.092Z,10.57
2018-09-30T07:37:12.333Z,8.13
2018-09-30T07:39:39.589Z,6.80
2018-09-30T07:42:06.825Z,7.47
2018-09-30T07:44:34.032Z,9.33
2018-09-30T07:47:01.303Z,7.40
2018-09-30T07:49:28.978Z,7.93
2018-09-30T07:51:56.820Z,5.27
2018-09-30T07:54:24.082Z,5.77
2018-09-30T07:56:51.308Z,5.70
2018-09-30T07:59:18.521Z,7.13
2018-09-30T08:01:45.780Z,4.83
2018-09-30T08:04:13.026Z,6.70
2018-09-30T08:06:40.264Z,6.40
2018-09-30T08:09:08.436Z,4.93
2018-09-30T08:11:35.729Z,7.73
2018-09-30T08:14:03.017Z,5.03
2018-09-30T08:16:30.419Z,4.43
2018-09-30T08:18:57.568Z,4.70
2018-09-30T08:21:24.917Z,4.33
2018-09-30T08:23:53.354Z,4.93
2018-09-30T08:26:20.660Z,3.13
2018-09-30T08:28:47.873Z,5.07
2018-09-30T08:31:15.133Z,2.63
2018-09-30T08:33:42.324Z,3.67
2018-09-30T08:36:10.123Z,5.43
2018-09-30T08:38:38.280Z,4.87
2018-09-30T08:41:08.696Z,5.53
2018-09-30T08:43:37.051Z,2.07
2018-09-30T08:46:04.369Z,4.73
2018-09-30T08:48:31.615Z,4.93
2018-09-30T08:50:58.871Z,4.67
2018-09-30T08:53:26.300Z,6.23
2018-09-30T08:55:54.391Z,6.57
2018-09-30T08:58:21.599Z,3.13
2018-09-30T09:00:48.964Z,2.50
2018-09-30T09:03:16.327Z,2.33
2018-09-30T09:05:43.648Z,4.83
2018-09-30T09:08:10.916Z,4.37
2018-09-30T09:10:38.182Z,3.60
2018-09-30T09:13:05.409Z,2.40
2018-09-30T09:15:32.730Z,2.07
2018-09-30T09:18:00.492Z,6.33
2018-09-30T09:20:27.765Z,3.17
2018-09-30T09:22:55.119Z,4.40
2018-09-30T09:25:22.301Z,3.50
2018-09-30T09:27:49.548Z,6.03
2018-09-30T09:30:16.827Z,4.80
2018-09-30T09:32:44.037Z,4.60
2018-09-30T09:35:11.272Z,5.57
2018-09-30T09:37:38.663Z,2.92
2018-09-30T09:40:06.961Z,5.75
2018-09-30T09:42:34.216Z,2.70
2018-09-30T09:45:01.461Z,3.55
2018-09-30T09:47:28.668Z,3.55
2018-09-30T09:49:55.963Z,3.62
2018-09-30T09:52:23.211Z,3.62
2018-09-30T09:54:50.432Z,3.15
2018-09-30T09:57:17.800Z,2.85
2018-09-30T09:59:45.151Z,2.65
2018-09-30T10:02:12.547Z,2.55
2018-09-30T10:04:39.847Z,3.10
2018-09-30T10:07:07.168Z,3.58
2018-09-30T10:09:34.437Z,3.35
2018-09-30T10:12:01.781Z,3.05
2018-09-30T10:14:28.996Z,3.50
2018-09-30T10:16:56.244Z,4.67
2018-09-30T10:19:23.466Z,3.55
2018-09-30T10:21:50.764Z,3.55
2018-09-30T10:24:18.130Z,3.50
2018-09-30T10:26:45.404Z,3.87
2018-09-30T10:29:12.667Z,2.92
2018-09-30T10:31:39.959Z,2.90
2018-09-30T10:34:07.276Z,4.72
2018-09-30T10:36:34.883Z,3.45
2018-09-30T10:39:02.681Z,5.40
2018-09-30T10:41:29.843Z,3.40
2018-09-30T10:43:57.117Z,2.95
2018-09-30T10:46:24.348Z,3.30
2018-09-30T10:48:51.641Z,3.12
2018-09-30T10:51:18.875Z,4.42
2018-09-30T10:53:46.160Z,3.72
2018-09-30T10:56:13.364Z,2.25
2018-09-30T10:58:40.604Z,2.87
2018-09-30T11:01:07.941Z,4.08
2018-09-30T11:03:35.305Z,3.75
2018-09-30T11:06:02.501Z,3.92
2018-09-30T11:08:29.753Z,4.70
2018-09-30T11:10:57.224Z,5.20
2018-09-30T11:13:24.478Z,3.20
2018-09-30T11:15:51.729Z,2.50
2018-09-30T11:18:18.958Z,5.92
2018-09-30T11:20:46.196Z,2.70
2018-09-30T11:23:13.440Z,3.25
2018-09-30T11:25:40.679Z,4.05
2018-09-30T11:28:08.012Z,4.70
2018-09-30T11:30:35.227Z,4.70
2018-09-30T11:33:02.465Z,2.98
2018-09-30T11:35:29.718Z,6.03
2018-09-30T11:37:57.019Z,4.62
2018-09-30T11:40:24.737Z,5.70
2018-09-30T11:42:51.921Z,3.98
2018-09-30T11:45:19.189Z,4.12
2018-09-30T11:47:46.385Z,5.80
2018-09-30T11:50:16.311Z,3.55
2018-09-30T11:52:45.223Z,3.10
2018-09-30T11:55:12.377Z,4.17
2018-09-30T11:57:39.849Z,2.72
2018-09-30T12:00:07.088Z,5.00
2018-09-30T12:02:34.379Z,4.30
2018-09-30T12:05:01.667Z,5.40
2018-09-30T12:07:28.908Z,3.47
2018-09-30T12:09:56.112Z,2.92
2018-09-30T12:12:23.378Z,3.50
2018-09-30T12:14:50.619Z,5.10
2018-09-30T12:17:18.032Z,3.42
2018-09-30T12:19:45.436Z,4.20
2018-09-30T12:22:12.680Z,5.78
2018-09-30T12:24:39.936Z,4.15
2018-09-30T12:27:07.189Z,4.17
2018-09-30T12:29:34.445Z,4.45
2018-09-30T12:32:01.703Z,4.40
2018-09-30T12:34:28.936Z,6.58
2018-09-30T12:36:56.201Z,4.85
2018-09-30T12:39:23.538Z,3.12
2018-09-30T12:41:50.725Z,5.45
2018-09-30T12:44:17.912Z,3.65
2018-09-30T12:46:45.196Z,4.00
2018-09-30T12:49:12.408Z,4.67
2018-09-30T12:51:39.678Z,2.70
2018-09-30T12:54:06.946Z,3.47
2018-09-30T12:56:34.224Z,3.72
2018-09-30T12:59:01.500Z,4.92
2018-09-30T13:01:28.733Z,5.83
2018-09-30T13:03:56.222Z,2.95
2018-09-30T13:06:23.431Z,4.12
2018-09-30T13:08:50.727Z,3.00
2018-09-30T13:11:17.921Z,6.05
2018-09-30T13:13:45.159Z,4.97
2018-09-30T13:16:12.411Z,4.42
2018-09-30T13:18:39.766Z,4.60
2018-09-30T13:21:07.073Z,5.10
2018-09-30T13:23:34.558Z,3.87
2018-09-30T13:26:01.845Z,5.42
2018-09-30T13:28:29.288Z,4.87
2018-09-30T13:30:56.551Z,4.45
2018-09-30T13:33:23.898Z,4.55
2018-09-30T13:35:51.116Z,3.52
2018-09-30T13:38:18.343Z,4.37
2018-09-30T13:40:45.707Z,4.67
2018-09-30T13:43:12.852Z,5.08
2018-09-30T13:45:40.191Z,6.40
2018-09-30T13:48:07.402Z,3.75
2018-09-30T13:50:34.666Z,3.65
2018-09-30T13:53:01.917Z,3.65
2018-09-30T13:55:29.163Z,4.22
2018-09-30T13:57:56.488Z,5.83
2018-09-30T14:00:23.756Z,6.03
2018-09-30T14:02:51.024Z,7.75
2018-09-30T14:05:18.293Z,5.17
2018-09-30T14:07:45.606Z,5.17
2018-09-30T14:10:12.927Z,3.65
2018-09-30T14:12:40.183Z,4.70
2018-09-30T14:15:07.455Z,4.58
2018-09-30T14:17:34.692Z,3.47
2018-09-30T14:20:02.378Z,2.33
2018-09-30T14:22:29.652Z,3.15
2018-09-30T14:24:56.909Z,3.52
2018-09-30T14:27:24.329Z,3.80
2018-09-30T14:29:51.541Z,2.95
2018-09-30T14:32:18.858Z,4.22
2018-09-30T14:34:46.171Z,3.25
2018-09-30T14:37:13.500Z,6.05
2018-09-30T14:39:40.765Z,4.95
2018-09-30T14:42:08.027Z,4.50
2018-09-30T14:44:35.276Z,5.22
2018-09-30T14:47:02.497Z,4.45
2018-09-30T14:49:29.758Z,5.65
2018-09-30T14:51:57.240Z,5.80
2018-09-30T14:54:24.628Z,4.22
2018-09-30T14:56:51.783Z,3.22
2018-09-30T14:59:19.061Z,3.77
2018-09-30T15:01:46.337Z,4.45
2018-09-30T15:04:13.554Z,6.25
2018-09-30T15:06:40.804Z,4.00
2018-09-30T15:09:09.080Z,4.55
2018-09-30T15:11:36.333Z,4.78
2018-09-30T15:14:03.603Z,7.22
2018-09-30T15:16:30.940Z,4.72
2018-09-30T15:18:58.172Z,7.35
2018-09-30T15:21:25.395Z,4.97
2018-09-30T15:23:52.689Z,6.15
2018-09-30T15:26:19.937Z,6.55
2018-09-30T15:28:47.194Z,4.90
2018-09-30T15:31:14.444Z,4.58
2018-09-30T15:33:41.924Z,6.37
2018-09-30T15:36:09.220Z,5.12
2018-09-30T15:38:36.568Z,5.03
2018-09-30T15:41:03.865Z,4.95
2018-09-30T15:43:31.155Z,6.40
2018-09-30T15:45:58.414Z,6.67
2018-09-30T15:48:25.711Z,4.67
2018-09-30T15:50:52.969Z,5.95
2018-09-30T15:53:20.252Z,6.20
2018-09-30T15:55:47.504Z,5.22
2018-09-30T15:58:14.767Z,6.72
2018-09-30T16:00:42.032Z,4.87
2018-09-30T16:03:09.283Z,6.33
2018-09-30T16:05:36.581Z,4.78
2018-09-30T16:08:03.860Z,5.15
2018-09-30T16:10:31.134Z,3.17
2018-09-30T16:12:59.400Z,4.75
2018-09-30T16:15:26.625Z,4.53
2018-09-30T16:17:53.916Z,4.90
2018-09-30T16:20:21.270Z,5.05
2018-09-30T16:22:48.621Z,3.77
2018-09-30T16:25:15.958Z,5.42
2018-09-30T16:27:43.217Z,4.35
2018-09-30T16:30:10.513Z,4.72
2018-09-30T16:32:37.810Z,4.08
2018-09-30T16:35:05.136Z,5.20
2018-09-30T16:37:32.480Z,3.92
2018-09-30T16:40:00.058Z,5.87
2018-09-30T16:42:27.323Z,9.47
2018-09-30T16:44:54.570Z,9.77
2018-09-30T16:47:21.801Z,12.30
2018-09-30T16:49:49.097Z,17.00
2018-09-30T16:52:16.390Z,6.23
2018-09-30T16:54:43.642Z,6.10
2018-09-30T16:57:10.940Z,6.23
2018-09-30T16:59:38.389Z,4.60
2018-09-30T17:02:05.865Z,4.90
2018-09-30T17:04:33.213Z,4.77
2018-09-30T17:07:00.708Z,5.27
2018-09-30T17:09:27.954Z,4.90
2018-09-30T17:11:55.284Z,5.17
2018-09-30T17:14:22.584Z,7.00
2018-09-30T17:16:49.846Z,5.20
2018-09-30T17:19:17.149Z,8.53
2018-09-30T17:21:44.352Z,4.70
2018-09-30T17:24:11.928Z,6.07
2018-09-30T17:26:39.303Z,6.47
2018-09-30T17:29:06.707Z,21.93
2018-09-30T17:31:34.023Z,32.57
2018-09-30T17:34:01.226Z,13.47
2018-09-30T17:36:28.491Z,10.67
2018-09-30T17:38:55.810Z,8.83
2018-09-30T17:41:23.060Z,8.87
2018-09-30T17:43:50.334Z,10.90
2018-09-30T17:46:17.524Z,10.43
2018-09-30T17:48:44.786Z,11.63
2018-09-30T17:51:12.208Z,11.87
2018-09-30T17:53:39.438Z,7.13
2018-09-30T17:56:06.694Z,8.03
2018-09-30T17:58:33.975Z,7.53
2018-09-30T18:01:01.482Z,9.60
2018-09-30T18:03:28.722Z,10.33
2018-09-30T18:05:55.977Z,12.07
2018-09-30T18:08:23.227Z,12.63
2018-09-30T18:10:50.555Z,11.20
2018-09-30T18:13:17.820Z,14.53
2018-09-30T18:15:45.137Z,9.23
2018-09-30T18:18:12.407Z,7.20
2018-09-30T18:20:39.625Z,8.07
2018-09-30T18:23:06.933Z,7.13
2018-09-30T18:25:34.198Z,10.50
2018-09-30T18:28:01.467Z,8.80
2018-09-30T18:30:28.722Z,8.57
2018-09-30T18:32:55.978Z,10.87
2018-09-30T18:35:23.201Z,11.10
2018-09-30T18:37:50.486Z,8.40
2018-09-30T18:40:17.824Z,15.30
2018-09-30T18:42:45.176Z,11.57
2018-09-30T18:45:12.459Z,11.27
2018-09-30T18:47:39.775Z,16.60
2018-09-30T18:50:09.917Z,15.50
2018-09-30T18:52:37.223Z,11.63
2018-09-30T18:55:04.547Z,6.23
2018-09-30T18:57:31.879Z,7.53
2018-09-30T18:59:59.182Z,11.00
2018-09-30T19:02:26.501Z,10.67
2018-09-30T19:04:53.736Z,12.97
2018-09-30T19:07:20.994Z,13.70
2018-09-30T19:09:48.378Z,12.50
2018-09-30T19:12:15.720Z,26.93
2018-09-30T19:14:43.122Z,25.20
2018-09-30T19:17:10.484Z,19.40
2018-09-30T19:19:37.798Z,27.67
2018-09-30T19:22:05.224Z,42.50
2018-09-30T19:24:32.513Z,46.40
2018-09-30T19:26:59.735Z,64.67
2018-09-30T19:29:27.115Z,44.47
2018-09-30T19:31:54.401Z,29.00
2018-09-30T19:34:21.704Z,21.50
2018-09-30T19:36:48.924Z,17.67
2018-09-30T19:39:16.196Z,14.87
2018-09-30T19:41:43.559Z,8.13
2018-09-30T19:44:10.876Z,9.30
2018-09-30T19:46:38.157Z,9.83
2018-09-30T19:49:05.413Z,7.40
2018-09-30T19:51:32.674Z,12.93
2018-09-30T19:54:00.049Z,8.37
2018-09-30T19:56:27.390Z,9.10
2018-09-30T19:58:54.623Z,12.10
2018-09-30T20:01:21.933Z,8.20
2018-09-30T20:03:49.231Z,7.60
2018-09-30T20:06:16.500Z,11.10
2018-09-30T20:08:43.877Z,10.90
2018-09-30T20:11:11.213Z,8.63
2018-09-30T20:13:38.504Z,8.90
2018-09-30T20:16:05.812Z,10.50
2018-09-30T20:18:33.109Z,12.40
2018-09-30T20:21:00.424Z,11.43
2018-09-30T20:23:27.688Z,12.07
2018-09-30T20:25:54.995Z,14.63
2018-09-30T20:28:22.321Z,15.30
2018-09-30T20:30:49.626Z,12.23
2018-09-30T20:33:16.915Z,11.10
2018-09-30T20:35:44.243Z,9.00
2018-09-30T20:38:11.517Z,11.73
2018-09-30T20:40:40.309Z,12.37
2018-09-30T20:43:08.360Z,12.93
2018-09-30T20:45:35.676Z,14.43
2018-09-30T20:48:03.256Z,10.33
2018-09-30T20:50:30.488Z,10.37
2018-09-30T20:52:57.876Z,9.83
2018-09-30T20:55:25.144Z,9.43
2018-09-30T20:57:53.560Z,12.83
2018-09-30T21:00:20.749Z,12.20
2018-09-30T21:02:48.083Z,10.87
2018-09-30T21:05:20.988Z,12.27
2018-09-30T21:07:48.355Z,13.90
2018-09-30T21:10:15.678Z,11.70
2018-09-30T21:12:42.974Z,11.77
2018-09-30T21:15:10.243Z,10.20
2018-09-30T21:17:40.318Z,13.67
2018-09-30T21:20:07.552Z,14.73
2018-09-30T21:22:34.828Z,12.07
2018-09-30T21:25:02.089Z,12.77
2018-09-30T21:27:29.393Z,11.00
2018-09-30T21:29:56.665Z,12.10
2018-09-30T21:32:24.284Z,11.23
2018-09-30T21:34:51.556Z,13.30
2018-09-30T21:37:18.812Z,10.63
2018-09-30T21:39:46.091Z,11.53
2018-09-30T21:42:13.263Z,9.50
2018-09-30T21:44:40.535Z,11.33
2018-09-30T21:47:07.764Z,11.27
2018-09-30T21:49:35.116Z,10.20
2018-09-30T21:52:02.472Z,12.63
2018-09-30T21:54:29.749Z,10.23
2018-09-30T21:56:57.006Z,11.50
2018-09-30T21:59:24.300Z,14.63
2018-09-30T22:01:51.637Z,12.43
2018-09-30T22:04:18.902Z,10.87
2018-09-30T22:06:46.112Z,9.67
2018-09-30T22:09:13.434Z,9.83
2018-09-30T22:11:40.721Z,11.17
2018-09-30T22:14:07.966Z,13.27
2018-09-30T22:16:35.196Z,11.67
2018-09-30T22:19:02.453Z,13.33
2018-09-30T22:21:29.772Z,11.33
2018-09-30T22:23:56.999Z,11.37
2018-09-30T22:26:24.267Z,11.33
2018-09-30T22:28:51.752Z,10.37
2018-09-30T22:31:18.942Z,12.27
2018-09-30T22:33:46.225Z,13.17
2018-09-30T22:36:13.508Z,12.83
2018-09-30T22:38:40.731Z,11.30
2018-09-30T22:41:08.073Z,10.13
2018-09-30T22:43:35.317Z,13.03
2018-09-30T22:46:02.596Z,10.13
2018-09-30T22:48:29.876Z,11.80
2018-09-30T22:50:57.168Z,12.30
2018-09-30T22:53:24.521Z,11.80
2018-09-30T22:55:51.695Z,12.00
2018-09-30T22:58:18.904Z,12.57
2018-09-30T23:00:46.137Z,14.63
2018-09-30T23:03:13.369Z,12.93
2018-09-30T23:05:40.658Z,13.03
2018-09-30T23:08:07.920Z,13.70
2018-09-30T23:10:35.111Z,13.13
2018-09-30T23:13:02.377Z,15.00
2018-09-30T23:15:29.585Z,12.67
2018-09-30T23:17:56.848Z,15.67
2018-09-30T23:20:24.080Z,11.30
2018-09-30T23:22:51.336Z,11.83
2018-09-30T23:25:18.796Z,10.23
2018-09-30T23:27:46.023Z,12.03
2018-09-30T23:30:13.233Z,14.23
2018-09-30T23:32:40.520Z,11.20
2018-09-30T23:35:07.801Z,12.53
2018-09-30T23:37:35.024Z,11.73
2018-09-30T23:40:02.384Z,10.77
2018-09-30T23:42:29.660Z,14.30
2018-09-30T23:44:56.943Z,16.27
2018-09-30T23:47:24.208Z,10.53
2018-09-30T23:49:51.437Z,15.37
2018-09-30T23:52:18.664Z,10.50
2018-09-30T23:54:45.917Z,18.97
2018-09-30T23:57:13.164Z,14.63
2018-09-30T23:59:40.657Z,10.93
